sensor_id;sensor_type;location;lat;lon;timestamp;P1;durP1;ratioP1;P2;durP2;ratioP2
22737;SDS011;11536;50.860;4.286;2023-06-10T00:01:24;7.20;;;4.80;;
22737;SDS011;11536;50.860;4.286;2023-06-10T00:03:50;10.23;;;5.55;;
22737;SDS011;11536;50.860;4.286;2023-06-10T00:06:16;8.40;;;5.30;;
22737;SDS011;11536;50.860;4.286;2023-06-10T00:08:42;8.95;;;5.05;;
22737;SDS011;11536;50.860;4.286;2023-06-10T00:11:08;8.30;;;5.53;;
22737;SDS011;11536;50.860;4.286;2023-06-10T00:13:34;10.80;;;6.15;;
22737;SDS011;11536;50.860;4.286;2023-06-10T00:15:59;8.48;;;5.68;;
22737;SDS011;11536;50.860;4.286;2023-06-10T00:18:25;10.35;;;5.78;;
22737;SDS011;11536;50.860;4.286;2023-06-10T00:20:52;8.50;;;5.45;;
22737;SDS011;11536;50.860;4.286;2023-06-10T00:23:20;7.75;;;4.95;;
22737;SDS011;11536;50.860;4.286;2023-06-10T00:25:46;8.70;;;5.95;;
22737;SDS011;11536;50.860;4.286;2023-06-10T00:28:11;9.55;;;5.53;;
22737;SDS011;11536;50.860;4.286;2023-06-10T00:30:38;8.52;;;5.72;;
22737;SDS011;11536;50.860;4.286;2023-06-10T00:33:04;10.55;;;5.88;;
22737;SDS011;11536;50.860;4.286;2023-06-10T00:35:29;9.00;;;5.72;;
22737;SDS011;11536;50.860;4.286;2023-06-10T00:37:55;9.73;;;6.10;;
22737;SDS011;11536;50.860;4.286;2023-06-10T00:40:21;9.15;;;5.65;;
22737;SDS011;11536;50.860;4.286;2023-06-10T00:42:46;7.82;;;5.20;;
22737;SDS011;11536;50.860;4.286;2023-06-10T00:45:12;9.32;;;5.60;;
22737;SDS011;11536;50.860;4.286;2023-06-10T00:47:38;10.52;;;5.55;;
22737;SDS011;11536;50.860;4.286;2023-06-10T00:50:04;8.88;;;5.18;;
22737;SDS011;11536;50.860;4.286;2023-06-10T00:52:31;8.07;;;5.10;;
22737;SDS011;11536;50.860;4.286;2023-06-10T00:54:58;9.20;;;5.60;;
22737;SDS011;11536;50.860;4.286;2023-06-10T00:57:24;9.00;;;5.10;;
22737;SDS011;11536;50.860;4.286;2023-06-10T00:59:51;10.88;;;6.13;;
22737;SDS011;11536;50.860;4.286;2023-06-10T01:02:17;7.30;;;4.85;;
22737;SDS011;11536;50.860;4.286;2023-06-10T01:04:43;11.00;;;5.93;;
22737;SDS011;11536;50.860;4.286;2023-06-10T01:10:05;10.10;;;5.43;;
22737;SDS011;11536;50.860;4.286;2023-06-10T01:12:34;7.00;;;4.65;;
22737;SDS011;11536;50.860;4.286;2023-06-10T01:15:06;9.52;;;5.53;;
22737;SDS011;11536;50.860;4.286;2023-06-10T01:17:33;10.30;;;5.43;;
22737;SDS011;11536;50.860;4.286;2023-06-10T01:20:02;9.07;;;5.65;;
22737;SDS011;11536;50.860;4.286;2023-06-10T01:22:28;9.30;;;5.45;;
22737;SDS011;11536;50.860;4.286;2023-06-10T01:24:57;8.40;;;5.00;;
22737;SDS011;11536;50.860;4.286;2023-06-10T01:27:23;9.43;;;6.18;;
22737;SDS011;11536;50.860;4.286;2023-06-10T01:29:54;8.73;;;5.75;;
22737;SDS011;11536;50.860;4.286;2023-06-10T01:32:34;8.18;;;5.13;;
22737;SDS011;11536;50.860;4.286;2023-06-10T01:35:05;8.82;;;6.00;;
22737;SDS011;11536;50.860;4.286;2023-06-10T01:37:32;8.13;;;5.43;;
22737;SDS011;11536;50.860;4.286;2023-06-10T01:39:59;10.88;;;5.93;;
22737;SDS011;11536;50.860;4.286;2023-06-10T01:42:25;8.27;;;5.57;;
22737;SDS011;11536;50.860;4.286;2023-06-10T01:44:51;8.93;;;5.50;;
22737;SDS011;11536;50.860;4.286;2023-06-10T01:47:17;9.25;;;5.70;;
22737;SDS011;11536;50.860;4.286;2023-06-10T01:49:42;8.27;;;5.65;;
22737;SDS011;11536;50.860;4.286;2023-06-10T01:52:08;8.95;;;5.75;;
22737;SDS011;11536;50.860;4.286;2023-06-10T01:54:34;9.55;;;5.88;;
22737;SDS011;11536;50.860;4.286;2023-06-10T01:56:59;8.07;;;5.82;;
22737;SDS011;11536;50.860;4.286;2023-06-10T01:59:26;8.88;;;5.55;;
22737;SDS011;11536;50.860;4.286;2023-06-10T02:01:51;8.77;;;5.90;;
22737;SDS011;11536;50.860;4.286;2023-06-10T02:04:17;9.35;;;5.72;;
22737;SDS011;11536;50.860;4.286;2023-06-10T02:06:42;10.05;;;5.65;;
22737;SDS011;11536;50.860;4.286;2023-06-10T02:09:08;11.10;;;5.88;;
22737;SDS011;11536;50.860;4.286;2023-06-10T02:11:33;9.82;;;5.82;;
22737;SDS011;11536;50.860;4.286;2023-06-10T02:13:59;8.18;;;5.53;;
22737;SDS011;11536;50.860;4.286;2023-06-10T02:16:25;10.98;;;6.43;;
22737;SDS011;11536;50.860;4.286;2023-06-10T02:18:51;8.90;;;6.35;;
22737;SDS011;11536;50.860;4.286;2023-06-10T02:21:17;9.50;;;6.07;;
22737;SDS011;11536;50.860;4.286;2023-06-10T02:23:42;9.50;;;6.18;;
22737;SDS011;11536;50.860;4.286;2023-06-10T02:26:08;9.15;;;5.90;;
22737;SDS011;11536;50.860;4.286;2023-06-10T02:28:33;8.95;;;6.05;;
22737;SDS011;11536;50.860;4.286;2023-06-10T02:30:59;10.85;;;6.35;;
22737;SDS011;11536;50.860;4.286;2023-06-10T02:33:25;8.90;;;5.95;;
22737;SDS011;11536;50.860;4.286;2023-06-10T02:35:52;9.88;;;5.53;;
22737;SDS011;11536;50.860;4.286;2023-06-10T02:38:17;10.32;;;6.35;;
22737;SDS011;11536;50.860;4.286;2023-06-10T02:40:43;10.50;;;6.40;;
22737;SDS011;11536;50.860;4.286;2023-06-10T02:43:09;9.15;;;6.05;;
22737;SDS011;11536;50.860;4.286;2023-06-10T02:45:34;9.82;;;6.65;;
22737;SDS011;11536;50.860;4.286;2023-06-10T02:48:00;8.70;;;6.43;;
22737;SDS011;11536;50.860;4.286;2023-06-10T02:50:25;10.32;;;6.75;;
22737;SDS011;11536;50.860;4.286;2023-06-10T02:52:51;8.70;;;5.93;;
22737;SDS011;11536;50.860;4.286;2023-06-10T02:55:16;10.13;;;6.45;;
22737;SDS011;11536;50.860;4.286;2023-06-10T02:57:42;9.75;;;6.10;;
22737;SDS011;11536;50.860;4.286;2023-06-10T03:00:08;9.07;;;5.85;;
22737;SDS011;11536;50.860;4.286;2023-06-10T03:02:39;11.18;;;6.38;;
22737;SDS011;11536;50.860;4.286;2023-06-10T03:05:05;9.52;;;6.13;;
22737;SDS011;11536;50.860;4.286;2023-06-10T03:07:35;9.43;;;5.90;;
22737;SDS011;11536;50.860;4.286;2023-06-10T03:10:01;9.23;;;6.10;;
22737;SDS011;11536;50.860;4.286;2023-06-10T03:12:26;12.82;;;6.40;;
22737;SDS011;11536;50.860;4.286;2023-06-10T03:14:52;8.80;;;6.38;;
22737;SDS011;11536;50.860;4.286;2023-06-10T03:17:17;9.20;;;6.15;;
22737;SDS011;11536;50.860;4.286;2023-06-10T03:19:43;12.55;;;7.00;;
22737;SDS011;11536;50.860;4.286;2023-06-10T03:22:13;10.38;;;6.75;;
22737;SDS011;11536;50.860;4.286;2023-06-10T03:24:39;10.52;;;6.28;;
22737;SDS011;11536;50.860;4.286;2023-06-10T03:27:09;9.25;;;6.15;;
22737;SDS011;11536;50.860;4.286;2023-06-10T03:29:36;11.25;;;6.70;;
22737;SDS011;11536;50.860;4.286;2023-06-10T03:32:02;9.77;;;6.75;;
22737;SDS011;11536;50.860;4.286;2023-06-10T03:34:28;12.65;;;6.38;;
22737;SDS011;11536;50.860;4.286;2023-06-10T03:36:57;8.38;;;6.05;;
22737;SDS011;11536;50.860;4.286;2023-06-10T03:39:23;11.68;;;6.75;;
22737;SDS011;11536;50.860;4.286;2023-06-10T03:41:49;9.68;;;6.63;;
22737;SDS011;11536;50.860;4.286;2023-06-10T03:44:15;10.00;;;6.00;;
22737;SDS011;11536;50.860;4.286;2023-06-10T03:46:41;9.15;;;6.38;;
22737;SDS011;11536;50.860;4.286;2023-06-10T03:49:06;9.43;;;6.22;;
22737;SDS011;11536;50.860;4.286;2023-06-10T03:51:32;9.68;;;6.07;;
22737;SDS011;11536;50.860;4.286;2023-06-10T03:53:58;10.95;;;6.68;;
22737;SDS011;11536;50.860;4.286;2023-06-10T03:56:23;10.50;;;6.90;;
22737;SDS011;11536;50.860;4.286;2023-06-10T03:58:49;10.30;;;6.75;;
22737;SDS011;11536;50.860;4.286;2023-06-10T04:01:15;14.18;;;6.57;;
22737;SDS011;11536;50.860;4.286;2023-06-10T04:03:42;11.57;;;6.72;;
22737;SDS011;11536;50.860;4.286;2023-06-10T04:06:08;9.00;;;6.18;;
22737;SDS011;11536;50.860;4.286;2023-06-10T04:08:34;10.50;;;6.18;;
22737;SDS011;11536;50.860;4.286;2023-06-10T04:11:01;12.63;;;7.10;;
22737;SDS011;11536;50.860;4.286;2023-06-10T04:13:27;11.98;;;6.78;;
22737;SDS011;11536;50.860;4.286;2023-06-10T04:15:52;11.52;;;7.32;;
22737;SDS011;11536;50.860;4.286;2023-06-10T04:18:19;9.68;;;6.22;;
22737;SDS011;11536;50.860;4.286;2023-06-10T04:20:46;9.93;;;6.80;;
22737;SDS011;11536;50.860;4.286;2023-06-10T04:23:12;10.48;;;7.00;;
22737;SDS011;11536;50.860;4.286;2023-06-10T04:25:38;10.15;;;7.22;;
22737;SDS011;11536;50.860;4.286;2023-06-10T04:28:03;12.10;;;7.18;;
22737;SDS011;11536;50.860;4.286;2023-06-10T04:30:29;10.40;;;6.93;;
22737;SDS011;11536;50.860;4.286;2023-06-10T04:32:56;10.30;;;7.30;;
22737;SDS011;11536;50.860;4.286;2023-06-10T04:35:22;13.52;;;7.78;;
22737;SDS011;11536;50.860;4.286;2023-06-10T04:37:47;11.35;;;7.60;;
22737;SDS011;11536;50.860;4.286;2023-06-10T04:40:13;10.27;;;7.10;;
22737;SDS011;11536;50.860;4.286;2023-06-10T04:42:40;10.32;;;6.97;;
22737;SDS011;11536;50.860;4.286;2023-06-10T04:45:06;12.43;;;8.52;;
22737;SDS011;11536;50.860;4.286;2023-06-10T04:47:32;10.70;;;6.90;;
22737;SDS011;11536;50.860;4.286;2023-06-10T04:49:58;11.48;;;6.82;;
22737;SDS011;11536;50.860;4.286;2023-06-10T04:52:27;11.15;;;6.75;;
22737;SDS011;11536;50.860;4.286;2023-06-10T04:54:53;11.05;;;6.80;;
22737;SDS011;11536;50.860;4.286;2023-06-10T04:57:19;11.52;;;7.13;;
22737;SDS011;11536;50.860;4.286;2023-06-10T04:59:46;10.32;;;7.25;;
22737;SDS011;11536;50.860;4.286;2023-06-10T05:02:12;12.80;;;6.47;;
22737;SDS011;11536;50.860;4.286;2023-06-10T05:04:37;11.48;;;6.60;;
22737;SDS011;11536;50.860;4.286;2023-06-10T05:07:03;10.38;;;7.03;;
22737;SDS011;11536;50.860;4.286;2023-06-10T05:09:30;14.52;;;7.22;;
22737;SDS011;11536;50.860;4.286;2023-06-10T05:11:55;10.20;;;6.65;;
22737;SDS011;11536;50.860;4.286;2023-06-10T05:14:21;13.07;;;6.90;;
22737;SDS011;11536;50.860;4.286;2023-06-10T05:16:47;12.60;;;7.43;;
22737;SDS011;11536;50.860;4.286;2023-06-10T05:19:13;11.77;;;7.63;;
22737;SDS011;11536;50.860;4.286;2023-06-10T05:21:39;10.55;;;6.80;;
22737;SDS011;11536;50.860;4.286;2023-06-10T05:24:04;10.13;;;6.75;;
22737;SDS011;11536;50.860;4.286;2023-06-10T05:26:31;10.98;;;7.18;;
22737;SDS011;11536;50.860;4.286;2023-06-10T05:28:58;11.10;;;7.30;;
22737;SDS011;11536;50.860;4.286;2023-06-10T05:31:23;10.75;;;6.75;;
22737;SDS011;11536;50.860;4.286;2023-06-10T05:33:49;10.82;;;7.20;;
22737;SDS011;11536;50.860;4.286;2023-06-10T05:36:15;11.73;;;6.72;;
22737;SDS011;11536;50.860;4.286;2023-06-10T05:38:40;9.82;;;6.93;;
22737;SDS011;11536;50.860;4.286;2023-06-10T05:41:06;10.27;;;6.97;;
22737;SDS011;11536;50.860;4.286;2023-06-10T05:43:32;10.88;;;7.05;;
22737;SDS011;11536;50.860;4.286;2023-06-10T05:45:57;11.90;;;7.40;;
22737;SDS011;11536;50.860;4.286;2023-06-10T05:48:23;11.10;;;6.50;;
22737;SDS011;11536;50.860;4.286;2023-06-10T05:50:49;11.02;;;6.97;;
22737;SDS011;11536;50.860;4.286;2023-06-10T05:53:15;9.43;;;6.82;;
22737;SDS011;11536;50.860;4.286;2023-06-10T05:55:44;10.85;;;6.63;;
22737;SDS011;11536;50.860;4.286;2023-06-10T05:58:10;11.13;;;6.07;;
22737;SDS011;11536;50.860;4.286;2023-06-10T06:00:37;11.57;;;6.88;;
22737;SDS011;11536;50.860;4.286;2023-06-10T06:03:06;12.73;;;6.50;;
22737;SDS011;11536;50.860;4.286;2023-06-10T06:05:34;13.48;;;7.40;;
22737;SDS011;11536;50.860;4.286;2023-06-10T06:08:03;11.27;;;6.75;;
22737;SDS011;11536;50.860;4.286;2023-06-10T06:10:35;14.80;;;6.90;;
22737;SDS011;11536;50.860;4.286;2023-06-10T06:13:01;13.10;;;7.22;;
22737;SDS011;11536;50.860;4.286;2023-06-10T06:15:27;9.10;;;6.43;;
22737;SDS011;11536;50.860;4.286;2023-06-10T06:17:52;13.85;;;6.88;;
22737;SDS011;11536;50.860;4.286;2023-06-10T06:20:19;10.30;;;6.55;;
22737;SDS011;11536;50.860;4.286;2023-06-10T06:22:45;13.25;;;6.57;;
22737;SDS011;11536;50.860;4.286;2023-06-10T06:25:11;9.25;;;6.57;;
22737;SDS011;11536;50.860;4.286;2023-06-10T06:27:37;9.50;;;6.40;;
22737;SDS011;11536;50.860;4.286;2023-06-10T06:30:02;9.98;;;6.43;;
22737;SDS011;11536;50.860;4.286;2023-06-10T06:32:29;9.40;;;6.10;;
22737;SDS011;11536;50.860;4.286;2023-06-10T06:34:54;9.52;;;5.97;;
22737;SDS011;11536;50.860;4.286;2023-06-10T06:37:21;10.95;;;6.97;;
22737;SDS011;11536;50.860;4.286;2023-06-10T06:39:48;11.05;;;6.55;;
22737;SDS011;11536;50.860;4.286;2023-06-10T06:42:18;11.13;;;6.60;;
22737;SDS011;11536;50.860;4.286;2023-06-10T06:44:44;9.27;;;6.20;;
22737;SDS011;11536;50.860;4.286;2023-06-10T06:47:10;10.30;;;6.15;;
22737;SDS011;11536;50.860;4.286;2023-06-10T06:49:36;8.98;;;6.28;;
22737;SDS011;11536;50.860;4.286;2023-06-10T06:52:02;9.32;;;5.95;;
22737;SDS011;11536;50.860;4.286;2023-06-10T06:54:28;9.27;;;6.05;;
22737;SDS011;11536;50.860;4.286;2023-06-10T06:56:54;11.25;;;7.15;;
22737;SDS011;11536;50.860;4.286;2023-06-10T06:59:19;9.43;;;6.43;;
22737;SDS011;11536;50.860;4.286;2023-06-10T07:01:46;9.80;;;6.47;;
22737;SDS011;11536;50.860;4.286;2023-06-10T07:04:14;11.43;;;6.20;;
22737;SDS011;11536;50.860;4.286;2023-06-10T07:06:40;10.88;;;6.30;;
22737;SDS011;11536;50.860;4.286;2023-06-10T07:09:07;8.70;;;5.95;;
22737;SDS011;11536;50.860;4.286;2023-06-10T07:11:34;10.07;;;5.85;;
22737;SDS011;11536;50.860;4.286;2023-06-10T07:13:59;11.45;;;7.00;;
22737;SDS011;11536;50.860;4.286;2023-06-10T07:16:25;10.98;;;6.68;;
22737;SDS011;11536;50.860;4.286;2023-06-10T07:18:52;11.02;;;6.38;;
22737;SDS011;11536;50.860;4.286;2023-06-10T07:21:18;9.95;;;6.38;;
22737;SDS011;11536;50.860;4.286;2023-06-10T07:23:43;10.32;;;6.43;;
22737;SDS011;11536;50.860;4.286;2023-06-10T07:26:10;9.27;;;5.68;;
22737;SDS011;11536;50.860;4.286;2023-06-10T07:28:39;10.88;;;5.97;;
22737;SDS011;11536;50.860;4.286;2023-06-10T07:31:06;8.88;;;6.45;;
22737;SDS011;11536;50.860;4.286;2023-06-10T07:33:32;7.82;;;5.20;;
22737;SDS011;11536;50.860;4.286;2023-06-10T07:35:58;10.88;;;6.40;;
22737;SDS011;11536;50.860;4.286;2023-06-10T07:38:25;11.45;;;6.13;;
22737;SDS011;11536;50.860;4.286;2023-06-10T07:40:56;9.38;;;5.78;;
22737;SDS011;11536;50.860;4.286;2023-06-10T07:43:24;11.57;;;5.65;;
22737;SDS011;11536;50.860;4.286;2023-06-10T07:45:55;9.43;;;6.15;;
22737;SDS011;11536;50.860;4.286;2023-06-10T07:48:30;11.50;;;5.82;;
22737;SDS011;11536;50.860;4.286;2023-06-10T07:50:58;8.63;;;5.80;;
22737;SDS011;11536;50.860;4.286;2023-06-10T07:53:51;8.70;;;5.47;;
22737;SDS011;11536;50.860;4.286;2023-06-10T07:56:18;7.65;;;5.53;;
22737;SDS011;11536;50.860;4.286;2023-06-10T07:58:57;7.90;;;5.22;;
22737;SDS011;11536;50.860;4.286;2023-06-10T08:01:23;8.98;;;5.57;;
22737;SDS011;11536;50.860;4.286;2023-06-10T08:03:58;9.13;;;5.43;;
22737;SDS011;11536;50.860;4.286;2023-06-10T08:06:27;8.30;;;5.60;;
22737;SDS011;11536;50.860;4.286;2023-06-10T08:08:54;9.82;;;5.20;;
22737;SDS011;11536;50.860;4.286;2023-06-10T08:11:31;8.82;;;5.45;;
22737;SDS011;11536;50.860;4.286;2023-06-10T08:13:57;10.30;;;5.18;;
22737;SDS011;11536;50.860;4.286;2023-06-10T08:16:23;9.60;;;5.22;;
22737;SDS011;11536;50.860;4.286;2023-06-10T08:18:48;10.10;;;4.78;;
22737;SDS011;11536;50.860;4.286;2023-06-10T08:21:15;6.93;;;4.57;;
22737;SDS011;11536;50.860;4.286;2023-06-10T08:23:41;7.45;;;5.07;;
22737;SDS011;11536;50.860;4.286;2023-06-10T08:26:06;8.25;;;5.40;;
22737;SDS011;11536;50.860;4.286;2023-06-10T08:28:32;8.20;;;5.57;;
22737;SDS011;11536;50.860;4.286;2023-06-10T08:30:58;8.15;;;5.22;;
22737;SDS011;11536;50.860;4.286;2023-06-10T08:33:23;7.90;;;5.05;;
22737;SDS011;11536;50.860;4.286;2023-06-10T08:35:49;10.25;;;5.30;;
22737;SDS011;11536;50.860;4.286;2023-06-10T08:38:15;7.68;;;4.80;;
22737;SDS011;11536;50.860;4.286;2023-06-10T08:40:41;10.18;;;5.07;;
22737;SDS011;11536;50.860;4.286;2023-06-10T08:43:07;9.23;;;5.25;;
22737;SDS011;11536;50.860;4.286;2023-06-10T08:45:40;7.30;;;4.45;;
22737;SDS011;11536;50.860;4.286;2023-06-10T08:48:08;7.10;;;5.10;;
22737;SDS011;11536;50.860;4.286;2023-06-10T08:50:36;8.20;;;5.40;;
22737;SDS011;11536;50.860;4.286;2023-06-10T08:53:04;7.70;;;5.00;;
22737;SDS011;11536;50.860;4.286;2023-06-10T08:55:32;9.32;;;4.60;;
22737;SDS011;11536;50.860;4.286;2023-06-10T08:58:03;10.88;;;5.10;;
22737;SDS011;11536;50.860;4.286;2023-06-10T09:00:29;7.55;;;4.38;;
22737;SDS011;11536;50.860;4.286;2023-06-10T09:02:56;9.07;;;4.88;;
22737;SDS011;11536;50.860;4.286;2023-06-10T09:05:33;7.45;;;4.85;;
22737;SDS011;11536;50.860;4.286;2023-06-10T09:08:08;8.38;;;4.60;;
22737;SDS011;11536;50.860;4.286;2023-06-10T09:10:34;7.45;;;4.53;;
22737;SDS011;11536;50.860;4.286;2023-06-10T09:13:00;7.95;;;4.88;;
22737;SDS011;11536;50.860;4.286;2023-06-10T09:15:26;9.93;;;4.70;;
22737;SDS011;11536;50.860;4.286;2023-06-10T09:17:52;7.28;;;4.53;;
22737;SDS011;11536;50.860;4.286;2023-06-10T09:20:17;8.23;;;4.80;;
22737;SDS011;11536;50.860;4.286;2023-06-10T09:22:44;7.25;;;4.43;;
22737;SDS011;11536;50.860;4.286;2023-06-10T09:25:10;8.13;;;4.28;;
22737;SDS011;11536;50.860;4.286;2023-06-10T09:27:47;8.40;;;4.75;;
22737;SDS011;11536;50.860;4.286;2023-06-10T09:30:31;7.63;;;4.50;;
22737;SDS011;11536;50.860;4.286;2023-06-10T09:32:59;6.07;;;4.03;;
22737;SDS011;11536;50.860;4.286;2023-06-10T09:35:34;6.88;;;4.40;;
22737;SDS011;11536;50.860;4.286;2023-06-10T09:38:00;7.88;;;4.32;;
22737;SDS011;11536;50.860;4.286;2023-06-10T09:40:27;7.93;;;4.28;;
22737;SDS011;11536;50.860;4.286;2023-06-10T09:42:53;7.90;;;4.25;;
22737;SDS011;11536;50.860;4.286;2023-06-10T09:45:21;6.50;;;4.10;;
22737;SDS011;11536;50.860;4.286;2023-06-10T09:47:47;7.03;;;4.25;;
22737;SDS011;11536;50.860;4.286;2023-06-10T09:50:17;9.32;;;4.68;;
22737;SDS011;11536;50.860;4.286;2023-06-10T09:52:42;7.68;;;4.55;;
22737;SDS011;11536;50.860;4.286;2023-06-10T09:55:10;6.90;;;4.80;;
22737;SDS011;11536;50.860;4.286;2023-06-10T09:57:36;7.15;;;4.57;;
22737;SDS011;11536;50.860;4.286;2023-06-10T10:00:08;6.55;;;4.05;;
22737;SDS011;11536;50.860;4.286;2023-06-10T10:02:53;7.70;;;4.40;;
22737;SDS011;11536;50.860;4.286;2023-06-10T10:07:45;7.80;;;4.60;;
22737;SDS011;11536;50.860;4.286;2023-06-10T10:10:11;6.00;;;4.03;;
22737;SDS011;11536;50.860;4.286;2023-06-10T10:12:39;7.28;;;4.57;;
22737;SDS011;11536;50.860;4.286;2023-06-10T10:15:06;6.82;;;4.30;;
22737;SDS011;11536;50.860;4.286;2023-06-10T10:17:46;10.32;;;4.10;;
22737;SDS011;11536;50.860;4.286;2023-06-10T10:20:17;7.70;;;4.40;;
22737;SDS011;11536;50.860;4.286;2023-06-10T10:22:49;7.97;;;3.88;;
22737;SDS011;11536;50.860;4.286;2023-06-10T10:25:20;6.70;;;3.83;;
22737;SDS011;11536;50.860;4.286;2023-06-10T10:27:58;6.00;;;3.90;;
22737;SDS011;11536;50.860;4.286;2023-06-10T10:30:37;7.30;;;4.38;;
22737;SDS011;11536;50.860;4.286;2023-06-10T10:33:12;6.97;;;4.00;;
22737;SDS011;11536;50.860;4.286;2023-06-10T10:35:44;7.20;;;4.45;;
22737;SDS011;11536;50.860;4.286;2023-06-10T10:38:11;7.80;;;4.18;;
22737;SDS011;11536;50.860;4.286;2023-06-10T10:40:37;7.70;;;4.45;;
22737;SDS011;11536;50.860;4.286;2023-06-10T10:43:03;8.43;;;4.25;;
22737;SDS011;11536;50.860;4.286;2023-06-10T10:45:30;8.65;;;4.32;;
22737;SDS011;11536;50.860;4.286;2023-06-10T10:47:58;8.98;;;4.88;;
22737;SDS011;11536;50.860;4.286;2023-06-10T10:50:33;6.88;;;4.18;;
22737;SDS011;11536;50.860;4.286;2023-06-10T10:53:01;8.55;;;4.40;;
22737;SDS011;11536;50.860;4.286;2023-06-10T10:55:28;7.15;;;4.18;;
22737;SDS011;11536;50.860;4.286;2023-06-10T10:57:55;6.47;;;3.55;;
22737;SDS011;11536;50.860;4.286;2023-06-10T11:00:28;6.43;;;3.60;;
22737;SDS011;11536;50.860;4.286;2023-06-10T11:02:57;6.55;;;3.95;;
22737;SDS011;11536;50.860;4.286;2023-06-10T11:05:39;6.53;;;4.03;;
22737;SDS011;11536;50.860;4.286;2023-06-10T11:08:11;7.25;;;4.00;;
22737;SDS011;11536;50.860;4.286;2023-06-10T11:10:38;7.80;;;4.15;;
22737;SDS011;11536;50.860;4.286;2023-06-10T11:13:06;8.63;;;4.13;;
22737;SDS011;11536;50.860;4.286;2023-06-10T11:15:44;7.07;;;4.38;;
22737;SDS011;11536;50.860;4.286;2023-06-10T11:20:53;5.72;;;3.38;;
22737;SDS011;11536;50.860;4.286;2023-06-10T11:23:40;7.15;;;3.67;;
22737;SDS011;11536;50.860;4.286;2023-06-10T11:26:13;8.60;;;3.88;;
22737;SDS011;11536;50.860;4.286;2023-06-10T11:29:00;6.15;;;4.00;;
22737;SDS011;11536;50.860;4.286;2023-06-10T11:31:32;8.63;;;4.70;;
22737;SDS011;11536;50.860;4.286;2023-06-10T11:33:59;5.78;;;3.80;;
22737;SDS011;11536;50.860;4.286;2023-06-10T11:36:29;6.00;;;3.60;;
22737;SDS011;11536;50.860;4.286;2023-06-10T11:39:00;6.90;;;3.67;;
22737;SDS011;11536;50.860;4.286;2023-06-10T11:41:27;7.95;;;4.00;;
22737;SDS011;11536;50.860;4.286;2023-06-10T11:43:54;6.13;;;3.53;;
22737;SDS011;11536;50.860;4.286;2023-06-10T11:46:23;7.65;;;4.40;;
22737;SDS011;11536;50.860;4.286;2023-06-10T11:48:56;6.63;;;4.10;;
22737;SDS011;11536;50.860;4.286;2023-06-10T11:51:28;6.50;;;4.05;;
22737;SDS011;11536;50.860;4.286;2023-06-10T11:53:55;6.90;;;3.95;;
22737;SDS011;11536;50.860;4.286;2023-06-10T11:56:24;6.05;;;4.15;;
22737;SDS011;11536;50.860;4.286;2023-06-10T11:58:55;7.30;;;4.50;;
22737;SDS011;11536;50.860;4.286;2023-06-10T12:01:22;10.70;;;4.10;;
22737;SDS011;11536;50.860;4.286;2023-06-10T12:03:56;6.70;;;3.92;;
22737;SDS011;11536;50.860;4.286;2023-06-10T12:06:26;6.53;;;4.00;;
22737;SDS011;11536;50.860;4.286;2023-06-10T12:08:53;7.05;;;4.75;;
22737;SDS011;11536;50.860;4.286;2023-06-10T12:11:19;6.85;;;4.40;;
22737;SDS011;11536;50.860;4.286;2023-06-10T12:13:46;7.68;;;4.28;;
22737;SDS011;11536;50.860;4.286;2023-06-10T12:16:15;7.80;;;4.50;;
22737;SDS011;11536;50.860;4.286;2023-06-10T12:18:45;8.55;;;4.60;;
22737;SDS011;11536;50.860;4.286;2023-06-10T12:23:59;6.60;;;4.35;;
22737;SDS011;11536;50.860;4.286;2023-06-10T12:26:44;7.97;;;4.80;;
22737;SDS011;11536;50.860;4.286;2023-06-10T12:29:23;7.68;;;4.68;;
22737;SDS011;11536;50.860;4.286;2023-06-10T12:32:02;6.70;;;4.80;;
22737;SDS011;11536;50.860;4.286;2023-06-10T12:34:31;7.00;;;4.53;;
22737;SDS011;11536;50.860;4.286;2023-06-10T12:36:58;8.15;;;4.57;;
22737;SDS011;11536;50.860;4.286;2023-06-10T12:39:24;7.68;;;4.57;;
22737;SDS011;11536;50.860;4.286;2023-06-10T12:41:50;7.63;;;4.85;;
22737;SDS011;11536;50.860;4.286;2023-06-10T12:44:16;7.95;;;5.10;;
22737;SDS011;11536;50.860;4.286;2023-06-10T12:46:42;9.88;;;5.72;;
22737;SDS011;11536;50.860;4.286;2023-06-10T12:49:07;9.90;;;5.50;;
22737;SDS011;11536;50.860;4.286;2023-06-10T12:51:43;8.30;;;5.47;;
22737;SDS011;11536;50.860;4.286;2023-06-10T12:54:12;7.10;;;4.57;;
22737;SDS011;11536;50.860;4.286;2023-06-10T12:56:39;7.15;;;4.78;;
22737;SDS011;11536;50.860;4.286;2023-06-10T12:59:05;7.13;;;4.65;;
22737;SDS011;11536;50.860;4.286;2023-06-10T13:01:31;6.35;;;4.32;;
22737;SDS011;11536;50.860;4.286;2023-06-10T13:03:57;8.73;;;5.18;;
22737;SDS011;11536;50.860;4.286;2023-06-10T13:06:23;7.55;;;4.28;;
22737;SDS011;11536;50.860;4.286;2023-06-10T13:08:49;6.53;;;4.53;;
22737;SDS011;11536;50.860;4.286;2023-06-10T13:11:15;7.78;;;5.13;;
22737;SDS011;11536;50.860;4.286;2023-06-10T13:13:41;8.82;;;4.68;;
22737;SDS011;11536;50.860;4.286;2023-06-10T13:16:07;7.32;;;4.95;;
22737;SDS011;11536;50.860;4.286;2023-06-10T13:18:33;7.57;;;5.00;;
22737;SDS011;11536;50.860;4.286;2023-06-10T13:21:05;6.82;;;4.47;;
22737;SDS011;11536;50.860;4.286;2023-06-10T13:23:31;7.97;;;4.88;;
22737;SDS011;11536;50.860;4.286;2023-06-10T13:25:57;8.05;;;4.20;;
22737;SDS011;11536;50.860;4.286;2023-06-10T13:28:23;7.28;;;4.28;;
22737;SDS011;11536;50.860;4.286;2023-06-10T13:30:49;9.10;;;4.70;;
22737;SDS011;11536;50.860;4.286;2023-06-10T13:33:15;7.88;;;4.85;;
22737;SDS011;11536;50.860;4.286;2023-06-10T13:35:41;8.05;;;4.80;;
22737;SDS011;11536;50.860;4.286;2023-06-10T13:38:08;7.57;;;4.78;;
22737;SDS011;11536;50.860;4.286;2023-06-10T13:40:34;8.60;;;4.40;;
22737;SDS011;11536;50.860;4.286;2023-06-10T13:42:59;7.35;;;4.72;;
22737;SDS011;11536;50.860;4.286;2023-06-10T13:45:25;7.63;;;4.35;;
22737;SDS011;11536;50.860;4.286;2023-06-10T13:47:52;8.57;;;4.80;;
22737;SDS011;11536;50.860;4.286;2023-06-10T13:50:18;7.38;;;4.82;;
22737;SDS011;11536;50.860;4.286;2023-06-10T13:52:44;8.02;;;4.72;;
22737;SDS011;11536;50.860;4.286;2023-06-10T13:55:09;7.32;;;4.72;;
22737;SDS011;11536;50.860;4.286;2023-06-10T13:57:35;7.47;;;4.85;;
22737;SDS011;11536;50.860;4.286;2023-06-10T14:00:04;6.95;;;4.72;;
22737;SDS011;11536;50.860;4.286;2023-06-10T14:02:30;6.97;;;4.72;;
22737;SDS011;11536;50.860;4.286;2023-06-10T14:04:56;6.88;;;4.55;;
22737;SDS011;11536;50.860;4.286;2023-06-10T14:07:22;8.27;;;4.45;;
22737;SDS011;11536;50.860;4.286;2023-06-10T14:09:48;8.63;;;5.00;;
22737;SDS011;11536;50.860;4.286;2023-06-10T14:12:13;8.68;;;4.43;;
22737;SDS011;11536;50.860;4.286;2023-06-10T14:14:39;7.70;;;4.38;;
22737;SDS011;11536;50.860;4.286;2023-06-10T14:17:05;6.55;;;4.35;;
22737;SDS011;11536;50.860;4.286;2023-06-10T14:19:30;7.05;;;4.80;;
22737;SDS011;11536;50.860;4.286;2023-06-10T14:21:59;7.55;;;4.70;;
22737;SDS011;11536;50.860;4.286;2023-06-10T14:24:25;6.65;;;4.32;;
22737;SDS011;11536;50.860;4.286;2023-06-10T14:26:50;8.35;;;4.60;;
22737;SDS011;11536;50.860;4.286;2023-06-10T14:29:16;6.25;;;4.10;;
22737;SDS011;11536;50.860;4.286;2023-06-10T14:31:43;7.05;;;4.75;;
22737;SDS011;11536;50.860;4.286;2023-06-10T14:34:09;6.80;;;4.32;;
22737;SDS011;11536;50.860;4.286;2023-06-10T14:36:34;6.60;;;4.80;;
22737;SDS011;11536;50.860;4.286;2023-06-10T14:39:00;6.55;;;4.13;;
22737;SDS011;11536;50.860;4.286;2023-06-10T14:41:26;7.85;;;5.10;;
22737;SDS011;11536;50.860;4.286;2023-06-10T14:43:52;6.65;;;4.22;;
22737;SDS011;11536;50.860;4.286;2023-06-10T14:46:17;10.52;;;5.13;;
22737;SDS011;11536;50.860;4.286;2023-06-10T14:48:45;12.73;;;5.43;;
22737;SDS011;11536;50.860;4.286;2023-06-10T14:51:11;8.00;;;4.95;;
22737;SDS011;11536;50.860;4.286;2023-06-10T14:53:40;10.38;;;5.20;;
22737;SDS011;11536;50.860;4.286;2023-06-10T14:56:06;14.25;;;4.70;;